createdAt,value
2019-04-30T00:00:20.945Z,22.15
2019-04-30T00:02:49.943Z,20.25
2019-04-30T00:05:19.030Z,21.73
2019-04-30T00:07:50.744Z,22.45
2019-04-30T00:10:15.545Z,21.95
2019-04-30T00:12:42.874Z,21.55
2019-04-30T00:15:11.003Z,21.77
2019-04-30T00:17:39.156Z,23.35
2019-04-30T00:20:06.485Z,20.65
2019-04-30T00:22:34.530Z,20.05
2019-04-30T00:25:02.830Z,21.73
2019-04-30T00:27:30.377Z,22.13
2019-04-30T00:30:00.230Z,22.70
2019-04-30T00:32:26.663Z,21.50
2019-04-30T00:34:55.606Z,22.60
2019-04-30T00:37:22.955Z,21.82
2019-04-30T00:39:51.308Z,22.15
2019-04-30T00:42:24.193Z,23.40
2019-04-30T00:44:48.286Z,23.05
2019-04-30T00:47:15.607Z,21.95
2019-04-30T00:49:42.941Z,23.10
2019-04-30T00:52:10.296Z,20.32
2019-04-30T00:54:37.667Z,24.90
2019-04-30T00:57:07.581Z,24.02
2019-04-30T00:59:35.098Z,24.43
2019-04-30T01:02:05.981Z,28.07
2019-04-30T01:04:37.649Z,25.30
2019-04-30T01:07:08.528Z,25.70
2019-04-30T01:09:35.431Z,27.07
2019-04-30T01:12:02.827Z,26.12
2019-04-30T01:14:32.035Z,27.48
2019-04-30T01:16:59.464Z,25.72
2019-04-30T01:19:30.613Z,27.22
2019-04-30T01:21:55.775Z,27.25
2019-04-30T01:24:23.481Z,26.25
2019-04-30T01:26:52.092Z,27.87
2019-04-30T01:29:19.402Z,27.20
2019-04-30T01:31:48.685Z,27.75
2019-04-30T01:34:15.688Z,28.70
2019-04-30T01:36:43.435Z,29.70
2019-04-30T01:39:11.987Z,26.65
2019-04-30T01:41:40.218Z,28.50
2019-04-30T01:44:08.697Z,29.72
2019-04-30T01:46:36.505Z,28.87
2019-04-30T01:49:03.844Z,27.80
2019-04-30T01:51:31.168Z,28.67
2019-04-30T01:53:59.447Z,27.98
2019-04-30T01:56:46.531Z,30.62
2019-04-30T01:59:24.435Z,28.70
2019-04-30T02:01:52.568Z,31.20
2019-04-30T02:04:19.870Z,29.23
2019-04-30T02:06:49.187Z,30.75
2019-04-30T02:09:16.179Z,29.87
2019-04-30T02:11:43.493Z,29.42
2019-04-30T02:14:10.820Z,30.17
2019-04-30T02:16:39.565Z,30.20
2019-04-30T02:19:06.908Z,30.10
2019-04-30T02:21:34.226Z,28.62
2019-04-30T02:24:01.580Z,30.50
2019-04-30T02:26:28.890Z,32.33
2019-04-30T02:28:56.206Z,30.57
2019-04-30T02:31:23.546Z,32.25
2019-04-30T02:33:52.526Z,31.70
2019-04-30T02:36:21.478Z,34.43
2019-04-30T02:38:53.438Z,32.83
2019-04-30T02:41:20.737Z,33.48
2019-04-30T02:43:49.737Z,31.85
2019-04-30T02:46:19.037Z,32.50
2019-04-30T02:48:46.140Z,33.53
2019-04-30T02:51:13.647Z,32.95
2019-04-30T02:53:42.612Z,34.95
2019-04-30T02:56:10.027Z,34.20
2019-04-30T02:58:37.270Z,33.73
2019-04-30T03:01:04.593Z,33.38
2019-04-30T03:03:31.931Z,33.20
2019-04-30T03:05:59.716Z,35.28
2019-04-30T03:08:29.562Z,30.77
2019-04-30T03:10:56.058Z,30.60
2019-04-30T03:13:23.372Z,31.25
2019-04-30T03:15:50.722Z,30.80
2019-04-30T03:18:23.022Z,30.43
2019-04-30T03:21:01.100Z,32.25
2019-04-30T03:23:29.333Z,32.73
2019-04-30T03:25:56.824Z,31.73
2019-04-30T03:28:24.164Z,32.05
2019-04-30T03:30:57.172Z,29.55
2019-04-30T03:33:22.999Z,32.28
2019-04-30T03:35:53.970Z,32.45
2019-04-30T03:38:20.380Z,32.63
2019-04-30T03:40:50.095Z,31.10
2019-04-30T03:43:16.330Z,31.75
2019-04-30T03:45:43.643Z,30.27
2019-04-30T03:48:10.995Z,31.23
2019-04-30T03:50:50.210Z,30.65
2019-04-30T03:53:10.219Z,32.35
2019-04-30T03:55:36.276Z,32.58
2019-04-30T03:58:03.594Z,32.20
2019-04-30T04:00:50.185Z,33.38
2019-04-30T04:03:20.047Z,31.35
2019-04-30T04:05:51.013Z,32.70
2019-04-30T04:08:25.494Z,33.70
2019-04-30T04:11:00.313Z,33.55
2019-04-30T04:13:26.208Z,33.33
2019-04-30T04:15:53.508Z,32.85
2019-04-30T04:18:20.841Z,33.58
2019-04-30T04:20:52.073Z,35.20
2019-04-30T04:23:19.222Z,32.33
2019-04-30T04:25:46.091Z,34.15
2019-04-30T04:28:13.434Z,34.25
2019-04-30T04:30:42.982Z,33.40
2019-04-30T04:33:10.187Z,33.67
2019-04-30T04:35:39.301Z,32.38
2019-04-30T04:38:06.649Z,31.15
2019-04-30T04:40:33.960Z,33.78
2019-04-30T04:43:01.311Z,32.58
2019-04-30T04:45:30.589Z,33.05
2019-04-30T04:47:59.746Z,34.75
2019-04-30T04:50:26.551Z,34.40
2019-04-30T04:52:53.875Z,33.78
2019-04-30T04:55:22.289Z,33.13
2019-04-30T04:57:50.188Z,34.23
2019-04-30T05:00:19.481Z,33.35
2019-04-30T05:02:49.795Z,34.10
2019-04-30T05:05:19.233Z,35.08
2019-04-30T05:07:46.212Z,36.55
2019-04-30T05:10:13.711Z,35.00
2019-04-30T05:12:41.023Z,33.78
2019-04-30T05:15:09.564Z,33.28
2019-04-30T05:17:36.976Z,31.45
2019-04-30T05:20:06.988Z,30.08
2019-04-30T05:22:34.330Z,30.37
2019-04-30T05:25:01.652Z,28.73
2019-04-30T05:27:30.325Z,30.32
2019-04-30T05:29:59.528Z,30.10
2019-04-30T05:32:26.707Z,28.90
2019-04-30T05:34:54.041Z,30.23
2019-04-30T05:37:22.497Z,26.90
2019-04-30T05:39:49.983Z,27.62
2019-04-30T05:42:18.458Z,26.52
2019-04-30T05:44:45.836Z,25.62
2019-04-30T05:47:13.182Z,26.17
2019-04-30T05:49:40.504Z,28.15
2019-04-30T05:52:09.152Z,29.32
2019-04-30T05:54:36.790Z,30.23
2019-04-30T05:57:04.137Z,27.45
2019-04-30T05:59:31.458Z,31.55
2019-04-30T06:01:59.246Z,28.67
2019-04-30T06:04:26.614Z,26.85
2019-04-30T06:06:53.927Z,29.60
2019-04-30T06:09:35.017Z,27.62
2019-04-30T06:12:11.431Z,28.70
2019-04-30T06:14:51.578Z,26.33
2019-04-30T06:17:19.800Z,25.32
2019-04-30T06:19:49.130Z,26.85
2019-04-30T06:22:16.151Z,24.45
2019-04-30T06:24:43.466Z,23.27
2019-04-30T06:27:11.019Z,22.73
2019-04-30T06:29:39.085Z,23.05
2019-04-30T06:32:08.513Z,21.62
2019-04-30T06:34:35.423Z,21.75
2019-04-30T06:37:02.906Z,22.20
2019-04-30T06:39:30.216Z,22.67
2019-04-30T06:42:04.889Z,21.80
2019-04-30T06:44:36.923Z,21.87
2019-04-30T06:46:56.243Z,21.45
2019-04-30T06:49:23.567Z,20.02
2019-04-30T06:51:50.923Z,20.68
2019-04-30T06:54:19.173Z,22.00
2019-04-30T06:56:48.456Z,23.52
2019-04-30T06:59:15.553Z,21.17
2019-04-30T07:01:42.873Z,22.20
2019-04-30T07:04:10.520Z,21.23
2019-04-30T07:06:44.007Z,22.70
2019-04-30T07:09:26.705Z,21.45
2019-04-30T07:12:23.008Z,22.75
2019-04-30T07:14:41.946Z,21.12
2019-04-30T07:17:09.552Z,21.77
2019-04-30T07:19:52.836Z,21.27
2019-04-30T07:22:05.824Z,19.90
2019-04-30T07:24:33.157Z,19.48
2019-04-30T07:27:02.742Z,19.37
2019-04-30T07:29:29.603Z,18.87
2019-04-30T07:31:59.121Z,19.02
2019-04-30T07:34:25.956Z,14.05
2019-04-30T07:37:10.716Z,13.45
2019-04-30T07:39:23.523Z,15.78
2019-04-30T07:41:51.206Z,17.05
2019-04-30T07:44:31.020Z,17.80
2019-04-30T07:46:49.231Z,16.52
2019-04-30T07:49:16.636Z,16.40
2019-04-30T07:51:44.380Z,19.02
2019-04-30T07:54:12.178Z,16.45
2019-04-30T07:56:41.756Z,16.37
2019-04-30T07:59:11.100Z,16.37
2019-04-30T08:01:37.457Z,15.83
2019-04-30T08:04:22.578Z,16.93
2019-04-30T08:06:50.027Z,17.50
2019-04-30T08:09:19.589Z,17.75
2019-04-30T08:11:46.298Z,16.65
2019-04-30T08:14:13.615Z,16.67
2019-04-30T08:16:40.951Z,16.00
2019-04-30T08:19:09.113Z,16.80
2019-04-30T08:21:38.238Z,16.85
2019-04-30T08:24:05.447Z,14.95
2019-04-30T08:26:32.799Z,15.78
2019-04-30T08:29:00.118Z,15.60
2019-04-30T08:31:29.262Z,15.25
2019-04-30T08:33:56.438Z,13.60
2019-04-30T08:36:23.737Z,14.38
2019-04-30T08:38:51.081Z,15.08
2019-04-30T08:41:19.306Z,15.50
2019-04-30T08:43:46.738Z,13.88
2019-04-30T08:46:14.062Z,16.02
2019-04-30T08:48:50.285Z,14.30
2019-04-30T08:51:13.392Z,15.78
2019-04-30T08:53:41.089Z,13.25
2019-04-30T08:56:09.991Z,13.50
2019-04-30T08:58:39.046Z,13.90
2019-04-30T09:01:06.420Z,11.68
2019-04-30T09:03:33.752Z,12.65
2019-04-30T09:06:02.712Z,14.23
2019-04-30T09:08:30.123Z,13.62
2019-04-30T09:10:59.360Z,13.40
2019-04-30T09:13:26.382Z,13.25
2019-04-30T09:15:53.732Z,14.15
2019-04-30T09:18:21.090Z,12.90
2019-04-30T09:20:49.489Z,11.28
2019-04-30T09:23:18.667Z,11.97
2019-04-30T09:25:46.050Z,10.82
2019-04-30T09:28:13.371Z,11.22
2019-04-30T09:30:40.716Z,11.45
2019-04-30T09:33:10.910Z,10.82
2019-04-30T09:35:37.010Z,12.73
2019-04-30T09:38:04.354Z,10.70
2019-04-30T09:40:32.558Z,10.18
2019-04-30T09:43:00.414Z,12.00
2019-04-30T09:45:28.547Z,11.43
2019-04-30T09:47:55.921Z,11.95
2019-04-30T09:50:23.261Z,10.60
2019-04-30T09:52:50.849Z,11.18
2019-04-30T09:55:19.350Z,10.23
2019-04-30T09:57:48.691Z,11.68
2019-04-30T10:00:15.703Z,11.35
2019-04-30T10:02:43.030Z,11.15
2019-04-30T10:05:10.965Z,8.60
2019-04-30T10:07:39.369Z,8.40
2019-04-30T10:10:09.435Z,7.70
2019-04-30T10:12:35.645Z,7.80
2019-04-30T10:15:03.049Z,8.63
2019-04-30T10:17:40.880Z,7.80
2019-04-30T10:20:08.596Z,7.08
2019-04-30T10:22:35.907Z,7.22
2019-04-30T10:25:04.366Z,6.83
2019-04-30T10:27:31.699Z,6.85
2019-04-30T10:29:59.444Z,8.48
2019-04-30T10:32:26.742Z,7.25
2019-04-30T10:34:54.077Z,6.62
2019-04-30T10:37:21.383Z,6.72
2019-04-30T10:39:49.102Z,7.45
2019-04-30T10:42:16.431Z,6.65
2019-04-30T10:44:43.731Z,6.95
2019-04-30T10:47:11.126Z,6.25
2019-04-30T10:49:39.004Z,8.68
2019-04-30T10:52:06.402Z,7.35
2019-04-30T10:54:33.743Z,7.20
2019-04-30T10:57:01.047Z,6.62
2019-04-30T10:59:28.342Z,6.30
2019-04-30T11:01:55.668Z,6.62
2019-04-30T11:04:22.965Z,8.23
2019-04-30T11:06:50.306Z,6.42
2019-04-30T11:09:18.580Z,6.22
2019-04-30T11:11:45.829Z,6.30
2019-04-30T11:14:13.166Z,7.33
2019-04-30T11:16:40.478Z,5.72
2019-04-30T11:19:09.381Z,6.10
2019-04-30T11:21:37.067Z,6.15
2019-04-30T11:24:04.537Z,8.08
2019-04-30T11:26:32.550Z,6.72
2019-04-30T11:29:00.410Z,6.20
2019-04-30T11:31:38.676Z,6.60
2019-04-30T11:34:06.652Z,6.40
2019-04-30T11:36:33.991Z,6.00
2019-04-30T11:39:01.294Z,5.67
2019-04-30T11:41:32.851Z,5.65
2019-04-30T11:43:59.477Z,5.75
2019-04-30T11:46:29.091Z,5.87
2019-04-30T11:48:56.450Z,5.90
2019-04-30T11:51:23.768Z,6.65
2019-04-30T11:53:51.094Z,4.45
2019-04-30T11:56:18.415Z,5.50
2019-04-30T11:58:45.709Z,6.22
2019-04-30T12:01:14.672Z,5.12
2019-04-30T12:03:41.974Z,6.75
2019-04-30T12:06:09.332Z,5.87
2019-04-30T12:08:39.243Z,5.67
2019-04-30T12:11:15.342Z,4.72
2019-04-30T12:13:43.550Z,6.50
2019-04-30T12:16:18.639Z,4.22
2019-04-30T12:18:45.975Z,4.95
2019-04-30T12:21:13.294Z,4.62
2019-04-30T12:23:40.614Z,4.70
2019-04-30T12:26:09.194Z,5.40
2019-04-30T12:28:36.592Z,5.85
2019-04-30T12:31:05.857Z,5.17
2019-04-30T12:33:32.920Z,5.10
2019-04-30T12:36:00.244Z,4.58
2019-04-30T12:38:29.705Z,4.78
2019-04-30T12:40:56.535Z,3.40
2019-04-30T12:43:23.871Z,4.77
2019-04-30T12:46:02.182Z,3.93
2019-04-30T12:48:21.760Z,7.53
2019-04-30T12:51:06.524Z,4.30
2019-04-30T12:53:38.003Z,4.10
2019-04-30T12:56:08.858Z,3.57
2019-04-30T12:58:35.950Z,4.77
2019-04-30T13:01:03.254Z,4.10
2019-04-30T13:03:30.813Z,5.00
2019-04-30T13:06:00.588Z,3.30
2019-04-30T13:08:27.658Z,2.90
2019-04-30T13:10:55.777Z,3.67
2019-04-30T13:13:23.964Z,3.27
2019-04-30T13:15:51.556Z,4.60
2019-04-30T13:18:19.514Z,3.17
2019-04-30T13:20:48.743Z,3.47
2019-04-30T13:23:15.812Z,2.60
2019-04-30T13:25:50.762Z,3.07
2019-04-30T13:28:13.723Z,3.40
2019-04-30T13:30:41.932Z,2.50
2019-04-30T13:33:22.573Z,2.30
2019-04-30T13:35:49.913Z,2.70
2019-04-30T13:38:21.935Z,2.90
2019-04-30T13:40:59.954Z,2.80
2019-04-30T13:43:45.267Z,3.00
2019-04-30T13:46:12.601Z,2.70
2019-04-30T13:48:39.906Z,3.20
2019-04-30T13:51:07.214Z,2.33
2019-04-30T13:53:34.541Z,2.40
2019-04-30T13:56:01.847Z,3.57
2019-04-30T13:58:29.150Z,2.97
2019-04-30T14:00:56.542Z,2.57
2019-04-30T14:03:25.484Z,2.37
2019-04-30T14:05:52.859Z,3.10
2019-04-30T14:08:21.834Z,2.10
2019-04-30T14:10:49.384Z,2.60
2019-04-30T14:13:16.657Z,3.30
2019-04-30T14:15:45.469Z,3.47
2019-04-30T14:18:12.774Z,2.70
2019-04-30T14:20:40.091Z,2.27
2019-04-30T14:23:08.613Z,2.43
2019-04-30T14:25:36.435Z,3.50
2019-04-30T14:28:03.773Z,2.77
2019-04-30T14:30:31.132Z,1.87
2019-04-30T14:32:59.324Z,3.67
2019-04-30T14:35:28.570Z,2.40
2019-04-30T14:37:55.712Z,2.60
2019-04-30T14:40:23.639Z,2.90
2019-04-30T14:42:53.289Z,2.00
2019-04-30T14:45:25.414Z,1.90
2019-04-30T14:47:55.507Z,2.17
2019-04-30T14:50:24.872Z,2.10
2019-04-30T14:52:56.799Z,2.40
2019-04-30T14:55:41.874Z,3.07
2019-04-30T14:58:26.878Z,1.93
2019-04-30T15:00:55.836Z,2.67
2019-04-30T15:03:24.823Z,2.20
2019-04-30T15:05:52.129Z,4.60
2019-04-30T15:08:19.489Z,2.00
2019-04-30T15:10:46.762Z,2.20
2019-04-30T15:13:14.066Z,2.17
2019-04-30T15:15:41.391Z,1.80
2019-04-30T15:18:09.204Z,1.80
2019-04-30T15:20:36.670Z,2.30
2019-04-30T15:23:19.128Z,2.53
2019-04-30T15:25:46.316Z,2.40
2019-04-30T15:28:13.617Z,2.80
2019-04-30T15:30:42.077Z,2.00
2019-04-30T15:33:11.100Z,2.50
2019-04-30T15:35:38.407Z,1.73
2019-04-30T15:38:05.720Z,2.13
2019-04-30T15:40:33.043Z,1.93
2019-04-30T15:43:02.437Z,2.10
2019-04-30T15:45:29.898Z,1.63
2019-04-30T15:47:58.491Z,3.30
2019-04-30T15:50:25.828Z,1.73
2019-04-30T15:52:53.171Z,2.10
2019-04-30T15:55:20.474Z,2.97
2019-04-30T15:57:59.369Z,3.03
2019-04-30T16:00:29.223Z,1.80
2019-04-30T16:03:00.177Z,2.77
2019-04-30T16:05:29.253Z,2.30
2019-04-30T16:07:58.730Z,2.37
2019-04-30T16:10:43.824Z,2.23
2019-04-30T16:13:30.557Z,2.60
2019-04-30T16:15:59.178Z,2.30
2019-04-30T16:18:30.183Z,2.63
2019-04-30T16:20:57.109Z,2.37
2019-04-30T16:23:24.422Z,2.30
2019-04-30T16:25:51.755Z,2.60
2019-04-30T16:28:29.547Z,2.58
2019-04-30T16:30:57.542Z,3.17
2019-04-30T16:33:33.670Z,2.80
2019-04-30T16:36:11.223Z,2.70
2019-04-30T16:38:39.408Z,3.05
2019-04-30T16:41:08.773Z,2.85
2019-04-30T16:43:35.704Z,2.35
2019-04-30T16:46:03.041Z,3.00
2019-04-30T16:48:30.342Z,2.35
2019-04-30T16:50:58.664Z,2.72
2019-04-30T16:53:26.099Z,2.98
2019-04-30T16:55:53.394Z,2.90
2019-04-30T16:58:20.705Z,2.60
2019-04-30T17:00:49.260Z,2.50
2019-04-30T17:03:19.139Z,2.80
2019-04-30T17:05:54.200Z,2.70
2019-04-30T17:08:29.120Z,3.17
2019-04-30T17:11:00.890Z,2.70
2019-04-30T17:13:35.591Z,2.87
2019-04-30T17:16:13.291Z,2.95
2019-04-30T17:18:41.838Z,2.75
2019-04-30T17:21:09.882Z,2.80
2019-04-30T17:23:37.226Z,3.95
2019-04-30T17:26:04.580Z,3.45
2019-04-30T17:28:31.902Z,2.50
2019-04-30T17:30:59.197Z,2.77
2019-04-30T17:33:26.548Z,2.35
2019-04-30T17:35:53.869Z,2.95
2019-04-30T17:38:21.216Z,2.95
2019-04-30T17:40:49.704Z,3.62
2019-04-30T17:43:17.147Z,3.30
2019-04-30T17:45:44.479Z,3.10
2019-04-30T17:48:11.815Z,3.15
2019-04-30T17:50:39.618Z,2.72
2019-04-30T17:53:08.953Z,3.55
2019-04-30T17:55:36.010Z,2.85
2019-04-30T17:58:03.351Z,3.17
2019-04-30T18:00:32.299Z,3.12
2019-04-30T18:02:59.610Z,3.25
2019-04-30T18:05:26.945Z,2.75
2019-04-30T18:07:54.261Z,3.08
2019-04-30T18:10:22.745Z,3.58
2019-04-30T18:12:50.071Z,3.60
2019-04-30T18:15:28.164Z,2.62
2019-04-30T18:18:00.096Z,3.02
2019-04-30T18:20:32.022Z,2.55
2019-04-30T18:23:17.365Z,2.98
2019-04-30T18:25:49.029Z,3.35
2019-04-30T18:28:16.337Z,3.40
2019-04-30T18:30:43.731Z,3.60
2019-04-30T18:33:11.072Z,5.40
2019-04-30T18:35:38.872Z,5.25
2019-04-30T18:38:06.279Z,4.58
2019-04-30T18:40:33.873Z,4.10
2019-04-30T18:43:01.183Z,4.05
2019-04-30T18:45:28.907Z,3.80
2019-04-30T18:47:56.307Z,4.50
2019-04-30T18:50:23.608Z,3.98
2019-04-30T18:52:52.511Z,4.25
2019-04-30T18:55:19.835Z,4.30
2019-04-30T18:57:56.498Z,6.97
2019-04-30T19:00:19.794Z,5.35
2019-04-30T19:02:48.483Z,3.75
2019-04-30T19:05:23.039Z,4.80
2019-04-30T19:07:51.976Z,4.15
2019-04-30T19:10:23.798Z,5.08
2019-04-30T19:12:56.355Z,4.75
2019-04-30T19:15:48.573Z,5.30
2019-04-30T19:18:16.603Z,5.65
2019-04-30T19:20:45.659Z,6.33
2019-04-30T19:23:12.983Z,5.65
2019-04-30T19:25:40.317Z,7.35
2019-04-30T19:28:12.162Z,6.10
2019-04-30T19:30:36.587Z,5.40
2019-04-30T19:33:03.892Z,6.25
2019-04-30T19:35:31.217Z,4.10
2019-04-30T19:37:59.263Z,5.10
2019-04-30T19:40:28.534Z,4.42
2019-04-30T19:42:55.509Z,5.58
2019-04-30T19:45:22.813Z,5.45
2019-04-30T19:47:50.114Z,5.70
2019-04-30T19:50:19.129Z,6.50
2019-04-30T19:52:46.530Z,7.40
2019-04-30T19:55:13.870Z,11.93
2019-04-30T19:57:41.186Z,10.25
2019-04-30T20:00:09.278Z,9.05
2019-04-30T20:02:36.629Z,8.83
2019-04-30T20:05:04.419Z,8.90
2019-04-30T20:07:31.740Z,9.18
2019-04-30T20:10:03.647Z,9.08
2019-04-30T20:12:29.035Z,7.90
2019-04-30T20:14:56.443Z,8.28
2019-04-30T20:17:23.771Z,8.30
2019-04-30T20:19:51.069Z,6.67
2019-04-30T20:22:19.634Z,8.70
2019-04-30T20:24:48.734Z,8.55
2019-04-30T20:27:16.070Z,8.60
2019-04-30T20:29:43.421Z,13.38
2019-04-30T20:32:10.732Z,10.55
2019-04-30T20:34:39.212Z,10.58
2019-04-30T20:37:08.543Z,10.03
2019-04-30T20:39:39.339Z,7.90
2019-04-30T20:42:06.184Z,7.53
2019-04-30T20:44:33.495Z,7.55
2019-04-30T20:47:00.822Z,7.00
2019-04-30T20:49:29.108Z,7.17
2019-04-30T20:51:56.581Z,8.65
2019-04-30T20:54:23.908Z,10.00
2019-04-30T20:56:51.240Z,8.40
2019-04-30T20:59:19.064Z,7.87
2019-04-30T21:01:46.482Z,8.25
2019-04-30T21:04:13.791Z,7.97
2019-04-30T21:06:41.123Z,6.97
2019-04-30T21:09:08.448Z,6.90
2019-04-30T21:11:35.754Z,6.58
2019-04-30T21:14:03.082Z,6.03
2019-04-30T21:16:30.403Z,10.30
2019-04-30T21:18:57.712Z,7.17
2019-04-30T21:21:25.045Z,6.40
2019-04-30T21:23:52.345Z,7.15
2019-04-30T21:26:19.732Z,8.33
2019-04-30T21:28:48.936Z,7.17
2019-04-30T21:31:34.011Z,8.80
2019-04-30T21:34:19.577Z,9.58
2019-04-30T21:36:47.029Z,9.30
2019-04-30T21:39:14.349Z,8.45
2019-04-30T21:41:41.655Z,8.63
2019-04-30T21:44:09.006Z,7.45
2019-04-30T21:46:37.610Z,7.12
2019-04-30T21:49:05.256Z,7.12
2019-04-30T21:51:32.611Z,7.12
2019-04-30T21:53:59.906Z,7.08
2019-04-30T21:56:27.219Z,7.53
2019-04-30T21:58:54.532Z,7.08
2019-04-30T22:01:22.906Z,7.65
2019-04-30T22:03:50.256Z,7.55
2019-04-30T22:06:19.453Z,8.33
2019-04-30T22:08:48.490Z,8.35
2019-04-30T22:11:15.470Z,7.58
2019-04-30T22:13:43.216Z,8.40
2019-04-30T22:16:10.630Z,7.00
2019-04-30T22:18:37.951Z,8.40
2019-04-30T22:21:05.271Z,7.45
2019-04-30T22:23:32.680Z,6.87
2019-04-30T22:26:00.041Z,6.45
2019-04-30T22:28:27.353Z,7.90
2019-04-30T22:30:54.650Z,8.25
2019-04-30T22:33:21.977Z,8.78
2019-04-30T22:35:53.719Z,9.10
2019-04-30T22:38:29.197Z,8.55
2019-04-30T22:40:58.711Z,8.43
2019-04-30T22:43:27.162Z,8.65
2019-04-30T22:45:56.128Z,9.45
2019-04-30T22:48:23.483Z,9.00
2019-04-30T22:50:50.819Z,8.43
2019-04-30T22:53:18.121Z,8.10
2019-04-30T22:55:45.419Z,8.60
2019-04-30T22:58:12.751Z,8.85
2019-04-30T23:00:46.898Z,7.72
2019-04-30T23:03:27.625Z,8.05
2019-04-30T23:05:54.956Z,7.00
2019-04-30T23:08:22.378Z,8.93
2019-04-30T23:10:49.674Z,9.15
2019-04-30T23:13:16.987Z,8.50
2019-04-30T23:15:44.508Z,8.03
2019-04-30T23:18:11.807Z,8.65
2019-04-30T23:20:39.111Z,8.25
2019-04-30T23:23:06.533Z,8.13
2019-04-30T23:25:33.836Z,8.98
2019-04-30T23:28:01.142Z,9.48
2019-04-30T23:30:28.478Z,8.65
2019-04-30T23:32:55.788Z,8.15
2019-04-30T23:35:23.124Z,8.75
2019-04-30T23:37:50.431Z,8.50
2019-04-30T23:40:35.614Z,8.75
2019-04-30T23:43:02.927Z,9.25
2019-04-30T23:45:30.270Z,9.20
2019-04-30T23:47:57.591Z,10.03
2019-04-30T23:50:24.922Z,8.98
2019-04-30T23:52:52.235Z,8.90
2019-04-30T23:55:19.541Z,9.80
2019-04-30T23:57:46.878Z,9.58
